createdAt,value
2022-10-15T00:01:47.417Z,11.80
2022-10-15T00:04:17.372Z,11.80
2022-10-15T00:06:45.848Z,11.80
2022-10-15T00:09:14.337Z,11.80
2022-10-15T00:11:42.835Z,11.80
2022-10-15T00:14:11.276Z,11.70
2022-10-15T00:16:39.865Z,11.70
2022-10-15T00:19:08.394Z,11.70
2022-10-15T00:21:38.470Z,11.60
2022-10-15T00:24:08.119Z,11.60
2022-10-15T00:26:36.699Z,11.50
2022-10-15T00:29:05.732Z,11.50
2022-10-15T00:31:34.263Z,11.50
2022-10-15T00:34:03.781Z,11.40
2022-10-15T00:36:34.588Z,11.40
2022-10-15T00:39:05.720Z,11.40
2022-10-15T00:41:36.041Z,11.30
2022-10-15T00:44:42.971Z,11.30
2022-10-15T00:47:16.254Z,11.30
2022-10-15T00:49:47.301Z,11.30
2022-10-15T00:52:19.298Z,11.30
2022-10-15T00:54:51.098Z,11.30
2022-10-15T00:57:19.661Z,11.20
2022-10-15T00:59:51.822Z,11.20
2022-10-15T01:02:21.351Z,11.30
2022-10-15T01:04:50.693Z,11.30
2022-10-15T01:07:19.302Z,11.30
2022-10-15T01:09:49.255Z,11.30
2022-10-15T01:12:24.499Z,11.30
2022-10-15T01:14:58.240Z,11.30
2022-10-15T01:17:31.028Z,11.30
2022-10-15T01:20:29.127Z,11.30
2022-10-15T01:23:06.136Z,11.20
2022-10-15T01:25:43.456Z,11.10
2022-10-15T01:28:18.281Z,11.10
2022-10-15T01:30:51.602Z,11.10
2022-10-15T01:33:27.195Z,11.10
2022-10-15T01:36:01.388Z,11.20
2022-10-15T01:38:38.485Z,11.20
2022-10-15T01:41:11.743Z,11.20
2022-10-15T01:43:46.164Z,11.20
2022-10-15T01:46:20.946Z,11.20
2022-10-15T01:48:50.392Z,11.20
2022-10-15T01:51:19.598Z,11.20
2022-10-15T01:53:48.481Z,11.10
2022-10-15T01:56:19.533Z,11.20
2022-10-15T01:58:49.043Z,11.20
2022-10-15T02:01:18.857Z,11.30
2022-10-15T02:03:47.990Z,11.30
2022-10-15T02:06:20.962Z,11.30
2022-10-15T02:08:57.580Z,11.30
2022-10-15T02:11:26.224Z,11.30
2022-10-15T02:14:01.537Z,11.30
2022-10-15T02:16:37.148Z,11.40
2022-10-15T02:19:09.211Z,11.40
2022-10-15T02:21:40.884Z,11.40
2022-10-15T02:24:13.105Z,11.40
2022-10-15T02:26:42.667Z,11.50
2022-10-15T02:29:13.893Z,11.50
2022-10-15T02:31:45.637Z,11.50
2022-10-15T02:34:16.647Z,11.50
2022-10-15T02:36:45.715Z,11.50
2022-10-15T02:39:17.340Z,11.50
2022-10-15T02:41:46.511Z,11.50
2022-10-15T02:44:15.011Z,11.50
2022-10-15T02:46:44.931Z,11.50
2022-10-15T02:49:13.572Z,11.50
2022-10-15T02:51:42.104Z,11.40
2022-10-15T02:54:10.683Z,11.40
2022-10-15T02:56:39.915Z,11.50
2022-10-15T02:59:08.466Z,11.40
2022-10-15T03:01:37.072Z,11.40
2022-10-15T03:04:07.140Z,11.40
2022-10-15T03:06:35.734Z,11.40
2022-10-15T03:09:04.831Z,11.40
2022-10-15T03:11:33.430Z,11.40
2022-10-15T03:14:01.938Z,11.40
2022-10-15T03:16:30.386Z,11.40
2022-10-15T03:18:58.776Z,11.40
2022-10-15T03:21:30.921Z,11.40
2022-10-15T03:24:00.036Z,11.40
2022-10-15T03:26:28.572Z,11.40
2022-10-15T03:28:57.092Z,11.40
2022-10-15T03:31:25.646Z,11.40
2022-10-15T03:33:54.137Z,11.40
2022-10-15T03:36:22.558Z,11.40
2022-10-15T03:38:52.480Z,11.40
2022-10-15T03:41:21.060Z,11.40
2022-10-15T03:43:49.476Z,11.40
2022-10-15T03:46:17.899Z,11.40
2022-10-15T03:48:50.268Z,11.50
2022-10-15T03:51:22.742Z,11.50
2022-10-15T03:53:54.691Z,11.50
2022-10-15T03:56:23.144Z,11.50
2022-10-15T03:58:51.668Z,11.60
2022-10-15T04:01:20.508Z,11.60
2022-10-15T04:03:49.157Z,11.50
2022-10-15T04:06:17.615Z,11.50
2022-10-15T04:08:46.186Z,11.50
2022-10-15T04:11:16.071Z,11.50
2022-10-15T04:13:44.530Z,11.50
2022-10-15T04:16:12.957Z,11.50
2022-10-15T04:18:41.379Z,11.50
2022-10-15T04:21:10.996Z,11.50
2022-10-15T04:23:39.449Z,11.50
2022-10-15T04:26:08.347Z,11.50
2022-10-15T04:28:38.280Z,11.50
2022-10-15T04:31:06.960Z,11.60
2022-10-15T04:33:35.467Z,11.60
2022-10-15T04:36:05.660Z,11.50
2022-10-15T04:38:34.435Z,11.50
2022-10-15T04:41:04.688Z,11.50
2022-10-15T04:43:33.258Z,11.60
2022-10-15T04:46:04.634Z,11.60
2022-10-15T04:48:36.616Z,11.60
2022-10-15T04:51:08.396Z,11.60
2022-10-15T04:53:37.000Z,11.60
2022-10-15T04:56:07.047Z,11.70
2022-10-15T04:58:41.719Z,11.70
2022-10-15T05:01:13.935Z,11.80
2022-10-15T05:03:45.209Z,11.70
2022-10-15T05:06:15.597Z,11.70
2022-10-15T05:08:44.458Z,11.70
2022-10-15T05:11:15.301Z,11.70
2022-10-15T05:13:43.869Z,11.70
2022-10-15T05:16:16.360Z,11.80
2022-10-15T05:18:46.486Z,11.70
2022-10-15T05:21:16.088Z,11.80
2022-10-15T05:23:45.577Z,11.80
2022-10-15T05:26:15.703Z,11.80
2022-10-15T05:28:44.251Z,11.80
2022-10-15T05:31:18.944Z,11.80
2022-10-15T05:33:47.896Z,11.90
2022-10-15T05:36:18.439Z,11.80
2022-10-15T05:38:48.098Z,11.80
2022-10-15T05:41:16.895Z,11.80
2022-10-15T05:43:47.729Z,11.80
2022-10-15T05:46:17.880Z,11.80
2022-10-15T05:48:49.633Z,11.80
2022-10-15T05:51:18.439Z,11.90
2022-10-15T05:53:47.260Z,11.90
2022-10-15T05:56:16.678Z,12.00
2022-10-15T05:58:45.094Z,12.10
2022-10-15T06:01:14.686Z,12.10
2022-10-15T06:03:45.024Z,12.20
2022-10-15T06:06:17.999Z,12.30
2022-10-15T06:08:46.506Z,12.40
2022-10-15T06:11:15.006Z,12.40
2022-10-15T06:13:44.613Z,12.40
2022-10-15T06:16:16.611Z,12.40
2022-10-15T06:18:49.274Z,12.40
2022-10-15T06:21:17.799Z,12.30
2022-10-15T06:23:46.643Z,12.20
2022-10-15T06:26:15.179Z,12.20
2022-10-15T06:28:43.742Z,12.30
2022-10-15T06:31:12.423Z,12.30
2022-10-15T06:33:40.898Z,12.30
2022-10-15T06:36:13.658Z,12.30
2022-10-15T06:38:44.180Z,12.20
2022-10-15T06:41:13.032Z,12.20
2022-10-15T06:43:41.514Z,12.10
2022-10-15T06:46:10.653Z,12.20
2022-10-15T06:48:39.328Z,12.30
2022-10-15T06:51:07.756Z,12.40
2022-10-15T06:53:40.543Z,12.40
2022-10-15T06:56:09.388Z,12.30
2022-10-15T06:58:37.902Z,12.40
2022-10-15T07:01:08.887Z,12.40
2022-10-15T07:03:38.994Z,12.40
2022-10-15T07:06:09.111Z,12.40
2022-10-15T07:08:38.994Z,12.40
2022-10-15T07:11:08.834Z,12.50
2022-10-15T07:13:37.285Z,12.50
2022-10-15T07:16:06.487Z,12.60
2022-10-15T07:18:35.256Z,12.60
2022-10-15T07:21:04.232Z,12.70
2022-10-15T07:23:32.863Z,12.60
2022-10-15T07:26:03.220Z,12.70
2022-10-15T07:28:31.815Z,12.70
2022-10-15T07:31:02.378Z,12.70
2022-10-15T07:33:31.159Z,12.80
2022-10-15T07:35:59.607Z,12.90
2022-10-15T07:38:28.365Z,12.90
2022-10-15T07:40:59.659Z,12.90
2022-10-15T07:43:29.792Z,12.90
2022-10-15T07:45:58.207Z,12.80
2022-10-15T07:48:26.682Z,12.90
2022-10-15T07:50:58.838Z,12.80
2022-10-15T07:53:27.623Z,12.80
2022-10-15T07:55:59.936Z,12.90
2022-10-15T07:58:30.709Z,12.90
2022-10-15T08:01:01.355Z,12.90
2022-10-15T08:03:30.648Z,12.90
2022-10-15T08:06:01.074Z,13.00
2022-10-15T08:08:29.598Z,13.10
2022-10-15T08:10:58.387Z,13.10
2022-10-15T08:13:27.250Z,13.20
2022-10-15T08:15:59.372Z,13.30
2022-10-15T08:18:28.905Z,13.30
2022-10-15T08:21:01.078Z,13.30
2022-10-15T08:23:29.950Z,13.30
2022-10-15T08:25:59.331Z,13.40
2022-10-15T08:28:27.928Z,13.40
2022-10-15T08:31:02.606Z,13.40
2022-10-15T08:33:34.327Z,13.50
2022-10-15T08:36:03.034Z,13.60
2022-10-15T08:38:31.766Z,13.60
2022-10-15T08:41:02.234Z,13.60
2022-10-15T08:43:33.973Z,13.70
2022-10-15T08:46:08.154Z,13.70
2022-10-15T08:48:41.108Z,13.70
2022-10-15T08:51:11.977Z,13.80
2022-10-15T08:53:43.695Z,13.80
2022-10-15T08:56:16.736Z,13.80
2022-10-15T08:58:50.311Z,13.80
2022-10-15T09:01:26.140Z,13.90
2022-10-15T09:04:01.508Z,13.90
2022-10-15T09:06:34.409Z,14.00
2022-10-15T09:09:09.632Z,14.10
2022-10-15T09:11:45.468Z,14.10
2022-10-15T09:14:17.198Z,14.10
2022-10-15T09:16:50.030Z,14.20
2022-10-15T09:19:20.370Z,14.40
2022-10-15T09:21:50.052Z,14.40
2022-10-15T09:24:22.375Z,14.50
2022-10-15T09:27:03.064Z,14.50
2022-10-15T09:29:36.743Z,14.60
2022-10-15T09:32:15.008Z,14.60
2022-10-15T09:34:47.556Z,14.70
2022-10-15T09:37:20.405Z,14.70
2022-10-15T09:40:05.139Z,14.80
2022-10-15T09:42:35.863Z,14.80
2022-10-15T09:45:06.836Z,14.80
2022-10-15T09:47:37.606Z,14.80
2022-10-15T09:50:08.113Z,14.90
2022-10-15T09:52:47.514Z,15.00
2022-10-15T09:55:31.240Z,15.00
2022-10-15T09:58:04.624Z,15.00
2022-10-15T10:00:54.662Z,15.10
2022-10-15T10:03:26.392Z,15.10
2022-10-15T10:06:01.370Z,15.10
2022-10-15T10:08:32.300Z,15.10
2022-10-15T10:11:02.371Z,15.10
2022-10-15T10:13:33.879Z,15.00
2022-10-15T10:16:07.528Z,15.00
2022-10-15T10:18:38.442Z,15.00
2022-10-15T10:21:08.677Z,15.00
2022-10-15T10:23:39.340Z,15.00
2022-10-15T10:26:09.358Z,15.00
2022-10-15T10:28:44.316Z,15.10
2022-10-15T10:31:13.254Z,15.10
2022-10-15T10:33:47.735Z,15.10
2022-10-15T10:36:26.439Z,15.30
2022-10-15T10:39:02.352Z,15.40
2022-10-15T10:41:49.354Z,15.60
2022-10-15T10:44:23.977Z,15.70
2022-10-15T10:47:12.342Z,15.70
2022-10-15T10:49:43.930Z,15.70
2022-10-15T10:52:29.660Z,15.70
2022-10-15T10:55:03.419Z,15.80
2022-10-15T10:57:40.720Z,15.70
2022-10-15T11:00:15.024Z,15.80
2022-10-15T11:02:44.154Z,15.80
2022-10-15T11:05:14.343Z,15.70
2022-10-15T11:07:48.638Z,15.80
2022-10-15T11:10:21.594Z,15.80
2022-10-15T11:12:58.916Z,15.80
2022-10-15T11:15:43.318Z,15.80
2022-10-15T11:18:34.039Z,15.80
2022-10-15T11:21:12.237Z,15.80
2022-10-15T11:23:51.619Z,15.80
2022-10-15T11:26:37.526Z,15.80
2022-10-15T11:29:26.768Z,15.80
2022-10-15T11:32:14.578Z,15.80
2022-10-15T11:34:55.904Z,15.90
2022-10-15T11:37:35.509Z,15.90
2022-10-15T11:40:19.686Z,15.90
2022-10-15T11:42:55.249Z,15.90
2022-10-15T11:45:38.209Z,15.80
2022-10-15T11:48:10.741Z,15.90
2022-10-15T11:50:43.274Z,15.90
2022-10-15T11:53:31.540Z,15.90
2022-10-15T11:56:04.296Z,16.00
2022-10-15T11:58:36.521Z,15.90
2022-10-15T12:01:08.011Z,16.00
2022-10-15T12:03:40.672Z,16.00
2022-10-15T12:06:12.149Z,16.00
2022-10-15T12:08:42.864Z,16.00
2022-10-15T12:11:21.891Z,16.00
2022-10-15T12:13:54.324Z,15.90
2022-10-15T12:16:31.403Z,15.90
2022-10-15T12:19:08.863Z,15.90
2022-10-15T12:21:39.577Z,15.90
2022-10-15T12:24:50.094Z,15.90
2022-10-15T12:27:26.752Z,15.80
2022-10-15T12:30:23.815Z,15.80
2022-10-15T12:32:52.922Z,15.90
2022-10-15T12:35:25.994Z,15.80
2022-10-15T12:37:54.667Z,15.80
2022-10-15T12:40:30.373Z,15.80
2022-10-15T12:43:00.593Z,15.80
2022-10-15T12:45:39.030Z,15.80
2022-10-15T12:48:21.731Z,15.70
2022-10-15T12:50:50.435Z,15.70
2022-10-15T12:53:34.404Z,15.70
2022-10-15T12:56:24.955Z,15.70
2022-10-15T12:58:54.668Z,15.80
2022-10-15T13:01:30.020Z,15.70
2022-10-15T13:03:59.993Z,15.70
2022-10-15T13:06:40.242Z,15.70
2022-10-15T13:09:23.550Z,15.80
2022-10-15T13:11:54.677Z,15.80
2022-10-15T13:14:30.464Z,15.70
2022-10-15T13:16:59.872Z,15.70
2022-10-15T13:19:30.334Z,15.80
2022-10-15T13:22:00.686Z,15.80
2022-10-15T13:24:30.915Z,15.90
2022-10-15T13:27:02.342Z,15.90
2022-10-15T13:29:30.916Z,15.90
2022-10-15T13:31:59.553Z,15.90
2022-10-15T13:34:30.185Z,16.00
2022-10-15T13:37:00.127Z,16.00
2022-10-15T13:39:31.641Z,16.00
2022-10-15T13:42:15.963Z,16.10
2022-10-15T13:44:45.311Z,16.10
2022-10-15T13:47:28.373Z,16.10
2022-10-15T13:50:20.128Z,16.10
2022-10-15T13:52:51.747Z,16.10
2022-10-15T13:55:23.116Z,16.10
2022-10-15T13:57:57.124Z,16.20
2022-10-15T14:00:28.416Z,16.10
2022-10-15T14:03:18.645Z,16.20
2022-10-15T14:05:48.824Z,16.30
2022-10-15T14:08:20.141Z,16.30
2022-10-15T14:10:49.184Z,16.30
2022-10-15T14:13:19.119Z,16.30
2022-10-15T14:15:51.742Z,16.40
2022-10-15T14:18:29.288Z,16.30
2022-10-15T14:20:58.129Z,16.30
2022-10-15T14:23:27.416Z,16.30
2022-10-15T14:25:58.747Z,16.20
2022-10-15T14:28:30.607Z,16.20
2022-10-15T14:30:59.353Z,16.10
2022-10-15T14:33:46.129Z,16.10
2022-10-15T14:36:24.623Z,16.10
2022-10-15T14:38:53.818Z,16.00
2022-10-15T14:41:28.263Z,16.00
2022-10-15T14:44:19.464Z,16.00
2022-10-15T14:46:49.957Z,16.00
2022-10-15T14:49:22.268Z,16.00
2022-10-15T14:51:59.579Z,15.90
2022-10-15T14:54:33.551Z,16.00
2022-10-15T14:57:02.145Z,16.00
2022-10-15T14:59:35.774Z,16.00
2022-10-15T15:02:05.680Z,16.00
2022-10-15T15:04:39.314Z,16.00
2022-10-15T15:07:16.039Z,15.90
2022-10-15T15:09:44.642Z,15.90
2022-10-15T15:12:20.767Z,15.90
2022-10-15T15:14:52.903Z,15.80
2022-10-15T15:17:24.394Z,15.80
2022-10-15T15:19:54.571Z,15.70
2022-10-15T15:22:28.699Z,15.70
2022-10-15T15:24:58.363Z,15.60
2022-10-15T15:27:29.044Z,15.60
2022-10-15T15:29:59.342Z,15.50
2022-10-15T15:32:28.240Z,15.50
2022-10-15T15:34:57.596Z,15.50
2022-10-15T15:37:27.294Z,15.50
2022-10-15T15:39:56.365Z,15.50
2022-10-15T15:42:26.530Z,15.50
2022-10-15T15:44:55.267Z,15.50
2022-10-15T15:47:25.076Z,15.50
2022-10-15T15:49:53.624Z,15.50
2022-10-15T15:52:22.311Z,15.50
2022-10-15T15:54:50.922Z,15.50
2022-10-15T15:57:19.354Z,15.40
2022-10-15T15:59:47.768Z,15.40
2022-10-15T16:02:16.179Z,15.40
2022-10-15T16:04:47.115Z,15.30
2022-10-15T16:07:17.919Z,15.30
2022-10-15T16:09:48.100Z,15.30
2022-10-15T16:12:16.704Z,15.20
2022-10-15T16:14:45.176Z,15.20
2022-10-15T16:17:13.653Z,15.20
2022-10-15T16:19:42.172Z,15.10
2022-10-15T16:22:13.268Z,15.10
2022-10-15T16:24:41.739Z,15.00
2022-10-15T16:27:10.227Z,14.90
2022-10-15T16:29:38.651Z,14.90
2022-10-15T16:32:07.118Z,14.90
2022-10-15T16:34:35.563Z,14.70
2022-10-15T16:37:04.578Z,14.50
2022-10-15T16:39:34.348Z,14.50
2022-10-15T16:42:02.775Z,14.50
2022-10-15T16:44:31.340Z,14.50
2022-10-15T16:46:59.758Z,14.40
2022-10-15T16:49:28.309Z,14.50
2022-10-15T16:51:56.779Z,14.40
2022-10-15T16:54:25.847Z,14.30
2022-10-15T16:56:55.679Z,14.20
2022-10-15T16:59:24.184Z,14.30
2022-10-15T17:01:52.714Z,14.40
2022-10-15T17:04:21.198Z,14.40
2022-10-15T17:06:50.170Z,14.40
2022-10-15T17:09:18.612Z,14.40
2022-10-15T17:11:48.376Z,14.30
2022-10-15T17:14:18.922Z,14.30
2022-10-15T17:16:48.795Z,14.30
2022-10-15T17:19:19.709Z,14.30
2022-10-15T17:21:48.358Z,14.20
2022-10-15T17:24:18.239Z,14.10
2022-10-15T17:26:47.438Z,14.10
2022-10-15T17:29:20.556Z,14.10
2022-10-15T17:31:49.700Z,14.10
2022-10-15T17:34:18.534Z,14.10
2022-10-15T17:36:49.814Z,14.10
2022-10-15T17:39:19.672Z,14.10
2022-10-15T17:41:48.409Z,14.20
2022-10-15T17:44:18.275Z,14.10
2022-10-15T17:46:46.775Z,14.10
2022-10-15T17:49:18.551Z,14.10
2022-10-15T17:51:47.674Z,14.10
2022-10-15T17:54:16.523Z,14.00
2022-10-15T17:56:45.014Z,14.00
2022-10-15T17:59:13.864Z,14.00
2022-10-15T18:02:00.774Z,13.90
2022-10-15T18:04:30.385Z,13.80
2022-10-15T18:06:58.972Z,13.80
2022-10-15T18:09:28.155Z,13.80
2022-10-15T18:11:57.112Z,13.80
2022-10-15T18:14:25.587Z,13.70
2022-10-15T18:16:55.432Z,13.60
2022-10-15T18:19:25.607Z,13.50
2022-10-15T18:21:54.450Z,13.40
2022-10-15T18:24:23.632Z,13.40
2022-10-15T18:26:52.781Z,13.40
2022-10-15T18:29:22.455Z,13.30
2022-10-15T18:31:56.196Z,13.30
2022-10-15T18:34:26.297Z,13.30
2022-10-15T18:36:54.899Z,13.30
2022-10-15T18:39:23.344Z,13.30
2022-10-15T18:41:51.788Z,13.30
2022-10-15T18:44:21.500Z,13.30
2022-10-15T18:46:50.045Z,13.30
2022-10-15T18:49:19.984Z,13.30
2022-10-15T18:51:51.855Z,13.30
2022-10-15T18:54:20.733Z,13.30
2022-10-15T18:56:49.227Z,13.30
2022-10-15T18:59:17.775Z,13.30
2022-10-15T19:01:46.437Z,13.30
2022-10-15T19:04:17.392Z,13.30
2022-10-15T19:06:48.212Z,13.20
2022-10-15T19:09:19.475Z,13.00
2022-10-15T19:11:49.947Z,12.90
2022-10-15T19:14:18.709Z,12.90
2022-10-15T19:16:47.186Z,12.90
2022-10-15T19:19:17.384Z,12.90
2022-10-15T19:21:46.558Z,12.90
2022-10-15T19:24:16.831Z,12.90
2022-10-15T19:26:47.071Z,13.00
2022-10-15T19:29:15.772Z,13.00
2022-10-15T19:31:45.707Z,13.00
2022-10-15T19:34:14.373Z,12.90
2022-10-15T19:36:46.223Z,12.90
2022-10-15T19:39:16.206Z,12.90
2022-10-15T19:41:46.615Z,12.80
2022-10-15T19:44:17.033Z,12.80
2022-10-15T19:46:46.247Z,12.80
2022-10-15T19:49:16.429Z,12.70
2022-10-15T19:51:44.886Z,12.70
2022-10-15T19:54:13.404Z,12.70
2022-10-15T19:56:41.808Z,12.70
2022-10-15T19:59:12.511Z,12.70
2022-10-15T20:01:41.030Z,12.60
2022-10-15T20:04:09.560Z,12.60
2022-10-15T20:06:39.352Z,12.60
2022-10-15T20:09:08.729Z,12.60
2022-10-15T20:11:37.836Z,12.60
2022-10-15T20:14:06.383Z,12.60
2022-10-15T20:16:36.269Z,12.60
2022-10-15T20:19:05.438Z,12.50
2022-10-15T20:21:34.305Z,12.50
2022-10-15T20:24:04.637Z,12.50
2022-10-15T20:26:34.009Z,12.50
2022-10-15T20:29:02.589Z,12.40
2022-10-15T20:31:33.068Z,12.30
2022-10-15T20:34:03.266Z,12.30
2022-10-15T20:36:31.680Z,12.30
2022-10-15T20:39:00.887Z,12.30
2022-10-15T20:41:29.839Z,12.30
2022-10-15T20:43:58.695Z,12.30
2022-10-15T20:46:30.318Z,12.30
2022-10-15T20:49:06.067Z,12.30
2022-10-15T20:51:38.355Z,12.30
2022-10-15T20:54:06.962Z,12.40
2022-10-15T20:56:35.401Z,12.40
2022-10-15T20:59:04.993Z,12.40
2022-10-15T21:01:33.815Z,12.50
2022-10-15T21:04:04.853Z,12.50
2022-10-15T21:06:33.281Z,12.50
2022-10-15T21:09:01.802Z,12.50
2022-10-15T21:11:30.361Z,12.50
2022-10-15T21:14:00.387Z,12.50
2022-10-15T21:16:28.920Z,12.50
2022-10-15T21:18:57.468Z,12.50
2022-10-15T21:21:27.371Z,12.50
2022-10-15T21:23:56.007Z,12.40
2022-10-15T21:26:24.477Z,12.40
2022-10-15T21:28:56.270Z,12.40
2022-10-15T21:31:25.112Z,12.50
2022-10-15T21:33:53.798Z,12.50
2022-10-15T21:36:25.109Z,12.40
2022-10-15T21:38:56.243Z,12.30
2022-10-15T21:41:25.478Z,12.20
2022-10-15T21:43:54.256Z,12.20
2022-10-15T21:46:22.787Z,12.20
2022-10-15T21:48:52.267Z,12.30
2022-10-15T21:51:21.879Z,12.30
2022-10-15T21:53:50.680Z,12.30
2022-10-15T21:56:20.565Z,12.30
2022-10-15T21:58:49.352Z,12.30
2022-10-15T22:01:19.720Z,12.30
2022-10-15T22:03:50.228Z,12.30
2022-10-15T22:06:19.839Z,12.30
2022-10-15T22:08:48.845Z,12.30
2022-10-15T22:11:20.357Z,12.30
2022-10-15T22:13:52.731Z,12.30
2022-10-15T22:16:21.977Z,12.30
2022-10-15T22:18:50.748Z,12.30
2022-10-15T22:21:21.299Z,12.20
2022-10-15T22:23:51.352Z,12.20
2022-10-15T22:26:21.868Z,12.20
2022-10-15T22:28:53.409Z,12.10
2022-10-15T22:31:22.063Z,12.10
2022-10-15T22:33:50.755Z,12.10
2022-10-15T22:36:20.568Z,12.10
2022-10-15T22:38:50.538Z,12.10
2022-10-15T22:41:18.985Z,12.10
2022-10-15T22:43:47.423Z,12.10
2022-10-15T22:46:17.426Z,12.10
2022-10-15T22:48:45.848Z,12.00
2022-10-15T22:51:14.762Z,11.90
2022-10-15T22:53:43.888Z,11.80
2022-10-15T22:56:14.299Z,11.90
2022-10-15T22:58:43.682Z,11.80
2022-10-15T23:01:13.335Z,11.90
2022-10-15T23:03:44.537Z,11.90
2022-10-15T23:06:14.067Z,11.90
2022-10-15T23:08:43.495Z,11.80
2022-10-15T23:11:13.222Z,11.80
2022-10-15T23:13:42.308Z,11.80
2022-10-15T23:16:13.654Z,11.70
2022-10-15T23:18:44.605Z,11.60
2022-10-15T23:21:15.332Z,11.60
2022-10-15T23:23:44.770Z,11.60
2022-10-15T23:26:14.486Z,11.60
2022-10-15T23:28:43.485Z,11.60
2022-10-15T23:31:17.091Z,11.60
2022-10-15T23:33:46.971Z,11.60
2022-10-15T23:36:17.506Z,11.60
2022-10-15T23:38:46.266Z,11.60
2022-10-15T23:41:15.347Z,11.70
2022-10-15T23:43:43.809Z,11.70
2022-10-15T23:46:13.090Z,11.70
2022-10-15T23:48:41.610Z,11.80
2022-10-15T23:51:15.371Z,11.70
2022-10-15T23:56:18.621Z,11.70
2022-10-15T23:58:49.969Z,11.70
